createdAt,value
2022-10-16T00:01:09.764Z,11.42
2022-10-16T00:03:47.116Z,11.41
2022-10-16T00:06:23.771Z,11.40
2022-10-16T00:08:53.933Z,11.38
2022-10-16T00:11:36.044Z,11.35
2022-10-16T00:14:16.022Z,11.33
2022-10-16T00:16:44.161Z,11.32
2022-10-16T00:19:15.546Z,11.31
2022-10-16T00:21:50.558Z,11.29
2022-10-16T00:24:26.678Z,11.25
2022-10-16T00:26:55.148Z,11.25
2022-10-16T00:29:25.986Z,11.24
2022-10-16T00:31:53.117Z,11.19
2022-10-16T00:34:30.778Z,11.20
2022-10-16T00:36:58.984Z,11.20
2022-10-16T00:39:32.920Z,11.20
2022-10-16T00:41:59.963Z,11.20
2022-10-16T00:45:07.295Z,11.13
2022-10-16T00:48:04.020Z,11.17
2022-10-16T00:50:42.202Z,11.15
2022-10-16T00:53:12.620Z,11.13
2022-10-16T00:55:42.515Z,11.11
2022-10-16T00:58:15.626Z,11.10
2022-10-16T01:00:51.195Z,11.09
2022-10-16T01:03:42.699Z,11.08
2022-10-16T01:06:39.044Z,11.06
2022-10-16T01:09:12.123Z,11.04
2022-10-16T01:11:54.089Z,11.00
2022-10-16T01:14:35.165Z,11.03
2022-10-16T01:17:16.445Z,11.02
2022-10-16T01:19:46.356Z,11.01
2022-10-16T01:22:14.771Z,11.01
2022-10-16T01:24:50.689Z,11.00
2022-10-16T01:27:23.562Z,11.00
2022-10-16T01:30:24.272Z,10.98
2022-10-16T01:32:56.299Z,10.95
2022-10-16T01:35:27.544Z,10.94
2022-10-16T01:38:15.319Z,10.94
2022-10-16T01:40:48.524Z,10.92
2022-10-16T01:43:20.263Z,10.91
2022-10-16T01:45:48.265Z,10.90
2022-10-16T01:48:21.628Z,10.89
2022-10-16T01:51:12.678Z,10.88
2022-10-16T01:53:43.038Z,10.87
2022-10-16T01:56:13.206Z,10.87
2022-10-16T01:58:48.256Z,10.86
2022-10-16T02:01:19.932Z,10.87
2022-10-16T02:03:50.482Z,10.88
2022-10-16T02:06:17.385Z,10.88
2022-10-16T02:08:45.063Z,10.87
2022-10-16T02:11:12.843Z,10.88
2022-10-16T02:14:18.597Z,10.86
2022-10-16T02:16:47.318Z,10.87
2022-10-16T02:19:17.408Z,10.87
2022-10-16T02:22:01.949Z,10.87
2022-10-16T02:24:52.762Z,10.87
2022-10-16T02:27:32.678Z,10.88
2022-10-16T02:30:09.071Z,10.86
2022-10-16T02:32:39.920Z,10.88
2022-10-16T02:35:08.663Z,10.87
2022-10-16T02:37:37.066Z,10.88
2022-10-16T02:40:06.016Z,10.87
2022-10-16T02:42:37.880Z,10.86
2022-10-16T02:45:06.232Z,10.88
2022-10-16T02:47:33.213Z,10.89
2022-10-16T02:50:00.507Z,10.88
2022-10-16T02:52:28.035Z,10.86
2022-10-16T02:54:55.257Z,10.88
2022-10-16T02:57:22.129Z,10.88
2022-10-16T02:59:49.025Z,10.86
2022-10-16T03:02:15.950Z,10.89
2022-10-16T03:04:42.713Z,10.90
2022-10-16T03:07:09.667Z,10.90
2022-10-16T03:09:36.518Z,10.86
2022-10-16T03:12:03.641Z,10.89
2022-10-16T03:14:30.499Z,10.88
2022-10-16T03:16:57.303Z,10.88
2022-10-16T03:19:24.214Z,10.87
2022-10-16T03:21:51.050Z,10.86
2022-10-16T03:24:17.949Z,10.86
2022-10-16T03:26:44.694Z,10.86
2022-10-16T03:29:11.633Z,10.86
2022-10-16T03:31:38.391Z,10.86
2022-10-16T03:34:05.205Z,10.86
2022-10-16T03:36:32.205Z,10.83
2022-10-16T03:38:59.013Z,10.86
2022-10-16T03:41:25.857Z,10.86
2022-10-16T03:43:52.698Z,10.85
2022-10-16T03:46:19.530Z,10.84
2022-10-16T03:48:46.499Z,10.84
2022-10-16T03:51:13.345Z,10.80
2022-10-16T03:53:40.182Z,10.81
2022-10-16T03:56:07.158Z,10.80
2022-10-16T03:58:34.163Z,10.78
2022-10-16T04:01:02.088Z,10.78
2022-10-16T04:03:29.097Z,10.75
2022-10-16T04:05:56.106Z,10.73
2022-10-16T04:08:23.120Z,10.72
2022-10-16T04:10:49.948Z,10.71
2022-10-16T04:13:17.241Z,10.69
2022-10-16T04:15:46.122Z,10.69
2022-10-16T04:18:13.039Z,10.66
2022-10-16T04:20:46.760Z,10.67
2022-10-16T04:23:16.208Z,10.66
2022-10-16T04:25:46.683Z,10.65
2022-10-16T04:28:15.379Z,10.63
2022-10-16T04:30:42.192Z,10.60
2022-10-16T04:33:10.965Z,10.56
2022-10-16T04:35:37.820Z,10.59
2022-10-16T04:38:04.744Z,10.58
2022-10-16T04:40:36.933Z,10.55
2022-10-16T04:43:05.421Z,10.53
2022-10-16T04:45:32.654Z,10.55
2022-10-16T04:48:00.326Z,10.54
2022-10-16T04:50:27.649Z,10.53
2022-10-16T04:52:54.463Z,10.47
2022-10-16T04:55:21.402Z,10.45
2022-10-16T04:57:48.281Z,10.47
2022-10-16T05:00:15.303Z,10.46
2022-10-16T05:02:42.138Z,10.46
2022-10-16T05:05:09.161Z,10.47
2022-10-16T05:07:36.021Z,10.44
2022-10-16T05:10:03.428Z,10.45
2022-10-16T05:12:30.351Z,10.44
2022-10-16T05:14:59.715Z,10.43
2022-10-16T05:17:27.907Z,10.39
2022-10-16T05:19:55.083Z,10.42
2022-10-16T05:22:22.098Z,10.38
2022-10-16T05:24:49.115Z,10.40
2022-10-16T05:27:19.989Z,10.36
2022-10-16T05:29:48.152Z,10.36
2022-10-16T05:32:19.439Z,10.35
2022-10-16T05:34:46.752Z,10.35
2022-10-16T05:37:13.886Z,10.34
2022-10-16T05:39:40.881Z,10.33
2022-10-16T05:42:07.809Z,10.35
2022-10-16T05:47:06.454Z,10.33
2022-10-16T05:49:34.854Z,10.34
2022-10-16T05:52:03.604Z,10.33
2022-10-16T05:54:33.381Z,10.34
2022-10-16T05:57:00.229Z,10.34
2022-10-16T05:59:27.143Z,10.32
2022-10-16T06:01:54.604Z,10.32
2022-10-16T06:04:21.556Z,10.31
2022-10-16T06:06:48.371Z,10.32
2022-10-16T06:09:15.717Z,10.33
2022-10-16T06:11:42.705Z,10.32
2022-10-16T06:14:10.042Z,10.31
2022-10-16T06:16:38.005Z,10.30
2022-10-16T06:19:07.524Z,10.32
2022-10-16T06:21:34.742Z,10.31
2022-10-16T06:24:02.041Z,10.32
2022-10-16T06:26:31.552Z,10.31
2022-10-16T06:28:59.952Z,10.30
2022-10-16T06:31:28.890Z,10.32
2022-10-16T06:33:57.170Z,10.32
2022-10-16T06:36:25.244Z,10.32
2022-10-16T06:38:52.439Z,10.31
2022-10-16T06:41:22.113Z,10.31
2022-10-16T06:43:49.837Z,10.30
2022-10-16T06:46:19.941Z,10.33
2022-10-16T06:48:47.868Z,10.33
2022-10-16T06:51:25.102Z,10.31
2022-10-16T06:54:03.271Z,10.33
2022-10-16T06:56:33.899Z,10.34
2022-10-16T06:59:01.143Z,10.34
2022-10-16T07:01:28.510Z,10.34
2022-10-16T07:03:55.591Z,10.33
2022-10-16T07:06:26.006Z,10.33
2022-10-16T07:08:53.526Z,10.35
2022-10-16T07:11:22.976Z,10.36
2022-10-16T07:13:54.819Z,10.36
2022-10-16T07:16:28.404Z,10.37
2022-10-16T07:19:00.046Z,10.37
2022-10-16T07:21:37.976Z,10.40
2022-10-16T07:24:07.320Z,10.40
2022-10-16T07:26:36.387Z,10.37
2022-10-16T07:29:04.397Z,10.41
2022-10-16T07:31:31.465Z,10.40
2022-10-16T07:34:00.352Z,10.42
2022-10-16T07:36:27.223Z,10.42
2022-10-16T07:38:57.117Z,10.40
2022-10-16T07:41:27.496Z,10.41
2022-10-16T07:43:55.579Z,10.40
2022-10-16T07:46:23.962Z,10.41
2022-10-16T07:48:51.420Z,10.37
2022-10-16T07:51:21.275Z,10.42
2022-10-16T07:53:48.706Z,10.43
2022-10-16T07:56:17.311Z,10.48
2022-10-16T07:58:45.019Z,10.46
2022-10-16T08:01:14.698Z,10.49
2022-10-16T08:03:46.572Z,10.52
2022-10-16T08:06:13.523Z,10.56
2022-10-16T08:08:40.482Z,10.63
2022-10-16T08:11:07.518Z,10.65
2022-10-16T08:13:34.721Z,10.68
2022-10-16T08:16:02.344Z,10.73
2022-10-16T08:18:29.396Z,10.76
2022-10-16T08:20:58.624Z,10.81
2022-10-16T08:23:27.072Z,10.87
2022-10-16T08:26:02.702Z,10.90
2022-10-16T08:28:29.836Z,10.98
2022-10-16T08:30:57.928Z,11.02
2022-10-16T08:33:24.863Z,11.09
2022-10-16T08:35:55.327Z,11.16
2022-10-16T08:38:22.358Z,11.19
2022-10-16T08:40:52.697Z,11.22
2022-10-16T08:43:21.923Z,11.32
2022-10-16T08:46:15.813Z,11.39
2022-10-16T08:48:52.194Z,11.46
2022-10-16T08:51:29.280Z,11.50
2022-10-16T08:54:02.961Z,11.57
2022-10-16T08:56:30.135Z,11.61
2022-10-16T08:59:01.650Z,11.69
2022-10-16T09:01:47.046Z,11.71
2022-10-16T09:04:56.794Z,11.72
2022-10-16T09:07:40.105Z,11.85
2022-10-16T09:10:20.841Z,11.91
2022-10-16T09:12:56.853Z,11.95
2022-10-16T09:15:36.612Z,12.03
2022-10-16T09:18:12.022Z,12.08
2022-10-16T09:20:58.947Z,12.12
2022-10-16T09:23:31.303Z,12.18
2022-10-16T09:25:59.592Z,12.23
2022-10-16T09:28:26.636Z,12.26
2022-10-16T09:30:54.445Z,12.27
2022-10-16T09:33:34.037Z,12.36
2022-10-16T09:36:03.535Z,12.42
2022-10-16T09:38:38.598Z,12.44
2022-10-16T09:41:22.187Z,12.50
2022-10-16T09:43:58.055Z,12.52
2022-10-16T09:46:31.765Z,12.59
2022-10-16T09:49:05.266Z,12.63
2022-10-16T09:51:37.464Z,12.67
2022-10-16T09:54:07.474Z,12.73
2022-10-16T09:56:40.335Z,12.76
2022-10-16T09:59:14.266Z,12.79
2022-10-16T10:01:47.036Z,12.83
2022-10-16T10:04:14.110Z,12.88
2022-10-16T10:06:52.482Z,12.92
2022-10-16T10:09:39.864Z,12.98
2022-10-16T10:12:19.689Z,13.01
2022-10-16T10:14:51.482Z,13.04
2022-10-16T10:17:26.560Z,13.10
2022-10-16T10:19:56.202Z,13.15
2022-10-16T10:22:32.224Z,13.18
2022-10-16T10:25:14.003Z,13.22
2022-10-16T10:28:04.167Z,13.20
2022-10-16T10:31:00.514Z,13.27
2022-10-16T10:33:58.462Z,13.30
2022-10-16T10:36:37.796Z,13.31
2022-10-16T10:39:13.920Z,13.34
2022-10-16T10:42:02.921Z,13.37
2022-10-16T10:44:41.840Z,13.37
2022-10-16T10:47:37.123Z,13.35
2022-10-16T10:50:23.004Z,13.36
2022-10-16T10:53:08.925Z,13.41
2022-10-16T10:55:46.626Z,13.40
2022-10-16T10:58:44.206Z,13.44
2022-10-16T11:01:34.460Z,13.48
2022-10-16T11:04:26.362Z,13.50
2022-10-16T11:07:06.471Z,13.50
2022-10-16T11:09:39.721Z,13.52
2022-10-16T11:12:09.428Z,13.56
2022-10-16T11:14:53.661Z,13.57
2022-10-16T11:17:23.434Z,13.57
2022-10-16T11:19:55.340Z,13.59
2022-10-16T11:22:41.405Z,13.64
2022-10-16T11:25:28.341Z,13.67
2022-10-16T11:27:55.227Z,13.67
2022-10-16T11:30:29.667Z,13.66
2022-10-16T11:33:19.981Z,13.68
2022-10-16T11:36:17.741Z,13.69
2022-10-16T11:38:49.284Z,13.66
2022-10-16T11:41:22.110Z,13.69
2022-10-16T11:44:30.884Z,13.74
2022-10-16T11:50:32.504Z,13.76
2022-10-16T11:53:13.316Z,13.77
2022-10-16T11:55:44.777Z,13.79
2022-10-16T11:58:35.591Z,13.80
2022-10-16T12:01:28.547Z,13.82
2022-10-16T12:04:04.531Z,13.83
2022-10-16T12:06:34.257Z,13.84
2022-10-16T12:09:02.364Z,13.82
2022-10-16T12:11:29.252Z,13.86
2022-10-16T12:14:06.724Z,13.88
2022-10-16T12:16:33.572Z,13.88
2022-10-16T12:19:16.163Z,13.90
2022-10-16T12:21:45.781Z,13.92
2022-10-16T12:24:42.308Z,13.97
2022-10-16T12:27:32.162Z,14.01
2022-10-16T12:30:06.826Z,14.02
2022-10-16T12:32:52.126Z,14.06
2022-10-16T12:35:26.023Z,14.13
2022-10-16T12:37:53.388Z,14.13
2022-10-16T12:40:33.913Z,14.16
2022-10-16T12:43:13.308Z,14.20
2022-10-16T12:45:40.307Z,14.23
2022-10-16T12:48:24.549Z,14.18
2022-10-16T12:50:56.232Z,14.24
2022-10-16T12:53:27.130Z,14.30
2022-10-16T12:56:11.968Z,14.28
2022-10-16T12:58:45.037Z,14.35
2022-10-16T13:01:47.148Z,14.38
2022-10-16T13:04:19.865Z,14.38
2022-10-16T13:06:57.875Z,14.42
2022-10-16T13:09:43.748Z,14.42
2022-10-16T13:12:33.154Z,14.46
2022-10-16T13:15:17.455Z,14.49
2022-10-16T13:18:07.486Z,14.53
2022-10-16T13:20:53.017Z,14.48
2022-10-16T13:23:31.731Z,14.52
2022-10-16T13:26:01.670Z,14.58
2022-10-16T13:28:31.975Z,14.59
2022-10-16T13:31:01.783Z,14.62
2022-10-16T13:33:38.595Z,14.63
2022-10-16T13:36:06.655Z,14.64
2022-10-16T13:38:37.518Z,14.67
2022-10-16T13:41:16.701Z,14.67
2022-10-16T13:43:54.096Z,14.69
2022-10-16T13:46:24.163Z,14.70
2022-10-16T13:49:12.123Z,14.71
2022-10-16T13:51:39.063Z,14.75
2022-10-16T13:54:05.962Z,14.77
2022-10-16T13:56:34.401Z,14.80
2022-10-16T13:59:06.859Z,14.80
2022-10-16T14:01:43.857Z,14.83
2022-10-16T14:04:14.180Z,14.84
2022-10-16T14:06:44.352Z,14.84
2022-10-16T14:09:27.912Z,14.86
2022-10-16T14:12:25.515Z,14.88
2022-10-16T14:14:56.595Z,14.87
2022-10-16T14:17:25.101Z,14.87
2022-10-16T14:19:58.632Z,14.90
2022-10-16T14:22:41.108Z,14.91
2022-10-16T14:25:20.275Z,14.92
2022-10-16T14:30:36.986Z,14.94
2022-10-16T14:33:24.471Z,14.95
2022-10-16T14:36:11.394Z,14.96
2022-10-16T14:38:44.441Z,14.96
2022-10-16T14:41:11.302Z,14.98
2022-10-16T14:43:39.963Z,14.99
2022-10-16T14:46:15.331Z,14.94
2022-10-16T14:48:48.674Z,14.96
2022-10-16T14:51:16.780Z,14.98
2022-10-16T14:53:44.045Z,14.95
2022-10-16T14:56:25.543Z,14.95
2022-10-16T14:58:54.123Z,14.95
2022-10-16T15:01:21.362Z,14.97
2022-10-16T15:03:48.855Z,14.98
2022-10-16T15:06:17.124Z,14.99
2022-10-16T15:08:44.661Z,14.98
2022-10-16T15:11:20.400Z,14.94
2022-10-16T15:13:47.842Z,14.92
2022-10-16T15:16:17.449Z,14.93
2022-10-16T15:18:45.325Z,14.91
2022-10-16T15:21:38.238Z,14.94
2022-10-16T15:24:14.302Z,14.93
2022-10-16T15:26:43.741Z,14.86
2022-10-16T15:29:10.659Z,14.88
2022-10-16T15:31:38.404Z,14.82
2022-10-16T15:34:06.987Z,14.83
2022-10-16T15:36:38.923Z,14.82
2022-10-16T15:39:12.976Z,14.79
2022-10-16T15:44:11.752Z,14.75
2022-10-16T15:46:38.749Z,14.70
2022-10-16T15:49:05.675Z,14.73
2022-10-16T15:51:34.137Z,14.72
2022-10-16T15:54:02.938Z,14.69
2022-10-16T15:56:30.295Z,14.68
2022-10-16T15:58:59.270Z,14.67
2022-10-16T16:01:27.096Z,14.65
2022-10-16T16:03:54.886Z,14.62
2022-10-16T16:06:22.401Z,14.60
2022-10-16T16:08:49.291Z,14.57
2022-10-16T16:11:17.943Z,14.55
2022-10-16T16:13:44.832Z,14.56
2022-10-16T16:16:16.333Z,14.52
2022-10-16T16:18:43.841Z,14.53
2022-10-16T16:21:14.083Z,14.49
2022-10-16T16:23:41.043Z,14.45
2022-10-16T16:26:10.916Z,14.45
2022-10-16T16:28:38.633Z,14.40
2022-10-16T16:31:06.021Z,14.39
2022-10-16T16:33:33.563Z,14.38
2022-10-16T16:36:05.052Z,14.36
2022-10-16T16:38:33.063Z,14.33
2022-10-16T16:41:00.020Z,14.31
2022-10-16T16:43:28.322Z,14.28
2022-10-16T16:45:55.708Z,14.25
2022-10-16T16:48:23.065Z,14.18
2022-10-16T16:50:50.064Z,14.20
2022-10-16T16:53:17.022Z,14.19
2022-10-16T16:55:43.972Z,14.16
2022-10-16T16:58:10.812Z,14.16
2022-10-16T17:00:37.763Z,14.11
2022-10-16T17:03:04.595Z,14.10
2022-10-16T17:05:31.543Z,14.07
2022-10-16T17:07:58.353Z,14.04
2022-10-16T17:10:25.217Z,14.01
2022-10-16T17:15:19.609Z,13.91
2022-10-16T17:17:46.545Z,13.93
2022-10-16T17:20:13.371Z,13.90
2022-10-16T17:22:40.430Z,13.83
2022-10-16T17:25:08.424Z,13.85
2022-10-16T17:27:36.422Z,13.78
2022-10-16T17:30:06.341Z,13.74
2022-10-16T17:32:33.241Z,13.77
2022-10-16T17:35:00.097Z,13.75
2022-10-16T17:37:26.945Z,13.73
2022-10-16T17:39:53.824Z,13.71
2022-10-16T17:42:20.724Z,13.65
2022-10-16T17:44:47.647Z,13.62
2022-10-16T17:47:14.551Z,13.65
2022-10-16T17:49:41.631Z,13.61
2022-10-16T17:52:08.732Z,13.60
2022-10-16T17:54:35.794Z,13.57
2022-10-16T17:57:02.753Z,13.57
2022-10-16T17:59:29.793Z,13.57
2022-10-16T18:01:56.704Z,13.56
2022-10-16T18:04:23.822Z,13.55
2022-10-16T18:06:51.100Z,13.56
2022-10-16T18:09:19.314Z,13.58
2022-10-16T18:11:46.614Z,13.58
2022-10-16T18:14:15.736Z,13.55
2022-10-16T18:16:43.404Z,13.53
2022-10-16T18:19:11.762Z,13.56
2022-10-16T18:21:38.967Z,13.55
2022-10-16T18:24:06.022Z,13.57
2022-10-16T18:26:33.305Z,13.51
2022-10-16T18:29:01.048Z,13.53
2022-10-16T18:31:28.563Z,13.53
2022-10-16T18:33:55.881Z,13.53
2022-10-16T18:36:29.616Z,13.49
2022-10-16T18:38:57.407Z,13.50
2022-10-16T18:41:25.254Z,13.47
2022-10-16T18:43:52.997Z,13.48
2022-10-16T18:46:22.596Z,13.47
2022-10-16T18:48:51.166Z,13.44
2022-10-16T18:51:40.818Z,13.46
2022-10-16T18:54:10.158Z,13.46
2022-10-16T18:56:37.756Z,13.47
2022-10-16T18:59:07.467Z,13.46
2022-10-16T19:01:36.047Z,13.47
2022-10-16T19:04:06.509Z,13.50
2022-10-16T19:06:36.578Z,13.50
2022-10-16T19:09:04.622Z,13.52
2022-10-16T19:11:32.083Z,13.54
2022-10-16T19:13:59.302Z,13.53
2022-10-16T19:16:29.846Z,13.56
2022-10-16T19:18:59.267Z,13.56
2022-10-16T19:21:28.381Z,13.55
2022-10-16T19:24:00.203Z,13.54
2022-10-16T19:26:28.813Z,13.52
2022-10-16T19:28:58.800Z,13.51
2022-10-16T19:31:27.815Z,13.52
2022-10-16T19:33:56.824Z,13.55
2022-10-16T19:36:26.106Z,13.55
2022-10-16T19:38:58.992Z,13.56
2022-10-16T19:41:27.523Z,13.55
2022-10-16T19:43:55.471Z,13.55
2022-10-16T19:46:24.845Z,13.54
2022-10-16T19:48:57.284Z,13.54
2022-10-16T19:51:25.582Z,13.52
2022-10-16T19:53:58.563Z,13.52
2022-10-16T19:56:27.688Z,13.52
2022-10-16T19:58:56.624Z,13.52
2022-10-16T20:01:25.868Z,13.51
2022-10-16T20:03:52.852Z,13.48
2022-10-16T20:06:20.515Z,13.49
2022-10-16T20:08:49.832Z,13.47
2022-10-16T20:11:19.682Z,13.48
2022-10-16T20:13:46.718Z,13.41
2022-10-16T20:16:14.600Z,13.46
2022-10-16T20:18:42.653Z,13.42
2022-10-16T20:21:15.235Z,13.42
2022-10-16T20:23:42.498Z,13.40
2022-10-16T20:26:11.534Z,13.40
2022-10-16T20:28:43.324Z,13.42
2022-10-16T20:31:26.984Z,13.40
2022-10-16T20:33:58.895Z,13.41
2022-10-16T20:36:31.831Z,13.40
2022-10-16T20:39:08.383Z,13.40
2022-10-16T20:41:42.498Z,13.39
2022-10-16T20:44:10.043Z,13.35
2022-10-16T20:46:44.514Z,13.29
2022-10-16T20:49:28.271Z,13.35
2022-10-16T20:52:21.279Z,13.36
2022-10-16T20:54:51.280Z,13.33
2022-10-16T20:57:23.886Z,13.33
2022-10-16T20:59:55.093Z,13.33
2022-10-16T21:02:25.970Z,13.34
2022-10-16T21:04:54.643Z,13.33
2022-10-16T21:07:23.651Z,13.27
2022-10-16T21:09:50.497Z,13.33
2022-10-16T21:12:18.817Z,13.31
2022-10-16T21:15:02.502Z,13.30
2022-10-16T21:17:35.800Z,13.27
2022-10-16T21:20:04.696Z,13.28
2022-10-16T21:22:33.510Z,13.28
2022-10-16T21:25:02.660Z,13.26
2022-10-16T21:27:32.727Z,13.27
2022-10-16T21:30:04.279Z,13.27
2022-10-16T21:32:40.681Z,13.23
2022-10-16T21:35:09.227Z,13.17
2022-10-16T21:37:38.627Z,13.25
2022-10-16T21:40:13.405Z,13.26
2022-10-16T21:42:46.337Z,13.26
2022-10-16T21:45:20.554Z,13.26
2022-10-16T21:47:54.308Z,13.27
2022-10-16T21:50:24.877Z,13.28
2022-10-16T21:52:59.668Z,13.26
2022-10-16T21:55:29.175Z,13.27
2022-10-16T21:58:02.955Z,13.27
2022-10-16T22:00:31.789Z,13.24
2022-10-16T22:03:04.579Z,13.26
2022-10-16T22:05:46.053Z,13.25
2022-10-16T22:08:19.106Z,13.26
2022-10-16T22:10:50.158Z,13.26
2022-10-16T22:13:31.416Z,13.25
2022-10-16T22:16:00.153Z,13.24
2022-10-16T22:18:34.227Z,13.24
2022-10-16T22:21:04.840Z,13.24
2022-10-16T22:23:34.446Z,13.23
2022-10-16T22:26:06.944Z,13.22
2022-10-16T22:28:53.559Z,13.22
2022-10-16T22:31:27.614Z,13.22
2022-10-16T22:34:03.074Z,13.22
2022-10-16T22:36:30.025Z,13.22
2022-10-16T22:39:02.136Z,13.20
2022-10-16T22:41:38.243Z,13.21
2022-10-16T22:44:13.944Z,13.22
2022-10-16T22:46:41.264Z,13.23
2022-10-16T22:49:14.196Z,13.22
2022-10-16T22:51:41.205Z,13.20
2022-10-16T22:54:12.842Z,13.16
2022-10-16T22:56:41.013Z,13.17
2022-10-16T22:59:14.155Z,13.17
2022-10-16T23:01:43.389Z,13.19
2022-10-16T23:04:11.471Z,13.18
2022-10-16T23:06:40.670Z,13.18
2022-10-16T23:09:10.873Z,13.17
2022-10-16T23:11:40.054Z,13.13
2022-10-16T23:14:06.917Z,13.15
2022-10-16T23:16:36.897Z,13.12
2022-10-16T23:21:52.496Z,13.13
2022-10-16T23:24:21.445Z,13.13
2022-10-16T23:26:48.342Z,13.13
2022-10-16T23:29:15.176Z,13.15
2022-10-16T23:31:42.119Z,13.12
2022-10-16T23:34:08.905Z,13.14
2022-10-16T23:36:35.755Z,13.15
2022-10-16T23:39:02.529Z,13.15
2022-10-16T23:41:29.397Z,13.15
2022-10-16T23:43:56.223Z,13.12
2022-10-16T23:48:54.912Z,13.12
2022-10-16T23:51:21.866Z,13.11
2022-10-16T23:53:48.704Z,13.14
2022-10-16T23:56:15.837Z,13.16
2022-10-16T23:58:42.767Z,13.15
